Time;durP1;ratioP1;P1;durP2;ratioP2;P2;SDS_P1;SDS_P2;PMS_P1;PMS_P2;Temp;Humidity;BMP_temperature;BMP_pressure;BME280_temperature;BME280_humidity;BME280_pressure;Samples;Min_cycle;Max_cycle;Signal;HPM_P1;HPM_P2
2022/07/27 00:01:01;;;;;;;2.88;0.63;;;;;;;;;;10490297;28;21216;-76
2022/07/27 00:06:02;;;;;;;3.22;0.57;;;;;;;;;;10502288;28;20185;-75
2022/07/27 00:11:04;;;;;;;1.08;0.50;;;;;;;;;;10494042;28;20210;-76
2022/07/27 00:16:05;;;;;;;1.77;0.52;;;;;;;;;;10474266;28;20254;-75
2022/07/27 00:21:07;;;;;;;1.90;0.73;;;;;;;;;;10464106;28;20592;-76
2022/07/27 00:26:08;;;;;;;2.75;0.80;;;;;;;;;;10471742;28;20178;-75
2022/07/27 00:31:09;;;;;;;2.20;0.73;;;;;;;;;;10490097;28;20221;-76
2022/07/27 00:36:10;;;;;;;3.22;0.90;;;;;;;;;;10483873;28;20200;-75
2022/07/27 00:41:11;;;;;;;2.10;0.60;;;;;;;;;;10490289;28;20260;-75
2022/07/27 00:46:12;;;;;;;5.45;0.85;;;;;;;;;;10459432;28;20261;-75
2022/07/27 00:51:14;;;;;;;2.97;0.80;;;;;;;;;;10496786;28;20217;-76
2022/07/27 00:56:15;;;;;;;1.88;0.60;;;;;;;;;;10480639;28;20650;-76
2022/07/27 01:01:20;;;;;;;2.67;0.60;;;;;;;;;;10481013;28;20225;-75
2022/07/27 01:06:21;;;;;;;5.45;1.10;;;;;;;;;;10489366;28;20182;-75
2022/07/27 01:11:22;;;;;;;6.10;0.80;;;;;;;;;;10487046;28;20696;-77
2022/07/27 01:16:24;;;;;;;2.10;0.60;;;;;;;;;;10481721;28;20186;-77
2022/07/27 01:21:25;;;;;;;4.35;0.90;;;;;;;;;;10464190;28;20654;-77
2022/07/27 01:26:26;;;;;;;8.55;0.80;;;;;;;;;;10485512;28;20205;-76
2022/07/27 01:31:27;;;;;;;2.30;0.70;;;;;;;;;;10491850;28;20240;-76
2022/07/27 01:36:29;;;;;;;6.65;0.77;;;;;;;;;;10468867;28;20186;-76
2022/07/27 01:41:30;;;;;;;2.63;0.70;;;;;;;;;;10497997;28;20226;-75
2022/07/27 01:46:31;;;;;;;5.63;0.70;;;;;;;;;;10476130;28;20602;-76
2022/07/27 01:51:32;;;;;;;5.38;0.70;;;;;;;;;;10494845;28;20214;-75
2022/07/27 01:56:33;;;;;;;2.88;0.40;;;;;;;;;;10498293;28;20186;-75
2022/07/27 02:01:34;;;;;;;7.40;0.80;;;;;;;;;;10488110;28;20221;-73
2022/07/27 02:06:35;;;;;;;3.42;0.55;;;;;;;;;;10467612;28;20182;-74
2022/07/27 02:16:56;;;;;;;4.40;0.70;;;;;;;;;;10496098;28;20189;-76
2022/07/27 02:21:57;;;;;;;4.03;0.77;;;;;;;;;;10468934;28;20232;-75
2022/07/27 02:26:58;;;;;;;4.13;0.70;;;;;;;;;;10465926;28;20257;-75
2022/07/27 02:32:00;;;;;;;1.85;0.50;;;;;;;;;;10494289;28;20226;-73
2022/07/27 02:37:01;;;;;;;5.25;0.50;;;;;;;;;;10460288;28;20197;-74
2022/07/27 02:42:02;;;;;;;3.72;0.55;;;;;;;;;;10467309;28;20221;-74
2022/07/27 02:47:03;;;;;;;1.70;0.60;;;;;;;;;;10457467;28;20187;-76
2022/07/27 02:52:05;;;;;;;3.00;0.52;;;;;;;;;;10463390;28;20213;-75
2022/07/27 02:57:06;;;;;;;2.90;0.70;;;;;;;;;;10507796;28;20182;-75
2022/07/27 03:02:07;;;;;;;4.68;0.70;;;;;;;;;;10503880;28;20313;-75
2022/07/27 03:07:08;;;;;;;2.90;0.80;;;;;;;;;;10506250;28;20587;-74
2022/07/27 03:12:09;;;;;;;5.40;0.70;;;;;;;;;;10502446;28;20213;-74
2022/07/27 03:17:10;;;;;;;2.88;0.60;;;;;;;;;;10495505;28;20198;-75
2022/07/27 03:22:11;;;;;;;1.88;0.50;;;;;;;;;;10497806;28;20448;-75
2022/07/27 03:27:12;;;;;;;1.65;0.60;;;;;;;;;;10502475;28;20684;-76
2022/07/27 03:32:13;;;;;;;1.05;0.65;;;;;;;;;;10468497;28;20260;-76
2022/07/27 03:37:16;;;;;;;4.47;0.50;;;;;;;;;;10487988;28;20188;-74
2022/07/27 03:42:17;;;;;;;3.08;0.43;;;;;;;;;;10461602;28;20222;-75
2022/07/27 03:47:18;;;;;;;2.08;0.52;;;;;;;;;;10466879;28;20204;-75
2022/07/27 03:52:19;;;;;;;3.25;0.88;;;;;;;;;;10483760;28;20604;-76
2022/07/27 03:57:20;;;;;;;0.65;0.60;;;;;;;;;;10494411;28;20178;-75
2022/07/27 04:02:21;;;;;;;4.70;0.60;;;;;;;;;;10490930;28;20218;-76
2022/07/27 04:07:22;;;;;;;4.85;0.50;;;;;;;;;;10485153;28;20185;-76
2022/07/27 04:12:23;;;;;;;2.17;0.55;;;;;;;;;;10490100;28;20304;-75
2022/07/27 04:17:24;;;;;;;4.38;0.55;;;;;;;;;;10451833;28;20300;-75
2022/07/27 04:22:26;;;;;;;2.63;0.70;;;;;;;;;;10490489;28;20736;-75
2022/07/27 04:27:27;;;;;;;3.97;0.77;;;;;;;;;;10487446;28;20186;-75
2022/07/27 04:32:28;;;;;;;3.90;0.52;;;;;;;;;;10455457;28;20241;-75
2022/07/27 04:37:29;;;;;;;3.10;0.50;;;;;;;;;;10488177;28;20714;-75
2022/07/27 04:42:30;;;;;;;3.28;0.55;;;;;;;;;;10491752;28;20312;-75
2022/07/27 04:47:31;;;;;;;4.53;0.80;;;;;;;;;;10458114;28;20209;-75
2022/07/27 04:52:32;;;;;;;1.77;0.60;;;;;;;;;;10490314;28;20303;-74
2022/07/27 04:57:33;;;;;;;4.47;1.00;;;;;;;;;;10486181;28;20290;-73
2022/07/27 05:02:34;;;;;;;3.25;0.70;;;;;;;;;;10480735;28;20271;-72
2022/07/27 05:07:35;;;;;;;4.88;0.90;;;;;;;;;;10486222;28;20218;-73
2022/07/27 05:12:37;;;;;;;3.22;0.60;;;;;;;;;;10493219;28;20647;-72
2022/07/27 05:17:38;;;;;;;3.67;0.60;;;;;;;;;;10481689;28;20279;-72
2022/07/27 05:22:39;;;;;;;5.93;0.88;;;;;;;;;;10483693;28;20220;-73
2022/07/27 05:27:41;;;;;;;4.32;0.70;;;;;;;;;;10485228;28;20174;-73
2022/07/27 05:32:42;;;;;;;4.57;0.40;;;;;;;;;;10489450;28;20321;-72
2022/07/27 05:37:43;;;;;;;4.18;0.60;;;;;;;;;;10471036;28;20190;-70
2022/07/27 05:42:44;;;;;;;1.80;0.40;;;;;;;;;;10485578;28;20233;-71
2022/07/27 05:47:45;;;;;;;7.65;0.70;;;;;;;;;;10475814;28;20324;-74
2022/07/27 05:52:46;;;;;;;3.03;0.50;;;;;;;;;;10466125;28;23656;-74
2022/07/27 05:57:47;;;;;;;3.13;0.88;;;;;;;;;;10476218;28;20186;-72
2022/07/27 06:02:48;;;;;;;3.35;0.93;;;;;;;;;;10472585;28;20229;-72
2022/07/27 06:07:58;;;;;;;3.38;0.60;;;;;;;;;;10478234;28;20268;-73
2022/07/27 06:13:00;;;;;;;4.10;0.70;;;;;;;;;;10459709;28;20589;-73
2022/07/27 06:18:02;;;;;;;3.03;0.40;;;;;;;;;;10457697;28;20212;-73
2022/07/27 06:23:03;;;;;;;1.58;1.05;;;;;;;;;;10482779;28;20222;-72
2022/07/27 06:28:05;;;;;;;3.75;0.52;;;;;;;;;;10463083;28;20229;-73
2022/07/27 06:33:07;;;;;;;4.97;0.70;;;;;;;;;;10481111;28;20234;-75
2022/07/27 06:38:08;;;;;;;1.95;0.70;;;;;;;;;;10466518;28;20285;-74
2022/07/27 06:43:09;;;;;;;4.65;0.65;;;;;;;;;;10487538;28;20226;-77
2022/07/27 06:48:10;;;;;;;5.35;0.50;;;;;;;;;;10484245;28;20677;-73
2022/07/27 06:53:11;;;;;;;6.05;0.50;;;;;;;;;;10485780;28;20271;-76
2022/07/27 06:58:12;;;;;;;4.07;0.57;;;;;;;;;;10483478;28;20174;-70
2022/07/27 07:03:13;;;;;;;2.55;0.50;;;;;;;;;;10484148;28;20222;-73
2022/07/27 07:08:15;;;;;;;4.47;0.80;;;;;;;;;;10477368;28;21142;-73
2022/07/27 07:13:16;;;;;;;4.88;0.50;;;;;;;;;;10454443;28;20916;-74
2022/07/27 07:18:17;;;;;;;0.93;0.32;;;;;;;;;;10489897;28;20258;-74
2022/07/27 07:23:20;;;;;;;1.85;0.60;;;;;;;;;;10486293;28;20225;-78
2022/07/27 07:28:21;;;;;;;2.28;0.47;;;;;;;;;;10484969;28;20228;-77
2022/07/27 07:33:23;;;;;;;0.63;0.40;;;;;;;;;;10487274;28;20229;-75
2022/07/27 07:38:24;;;;;;;4.35;0.50;;;;;;;;;;10484592;28;20174;-76
2022/07/27 07:43:25;;;;;;;1.75;0.40;;;;;;;;;;10484564;28;21183;-77
2022/07/27 07:48:26;;;;;;;4.03;0.60;;;;;;;;;;10478837;28;20284;-77
2022/07/27 07:53:27;;;;;;;5.97;0.40;;;;;;;;;;10473513;28;20897;-79
2022/07/27 07:58:30;;;;;;;4.10;0.85;;;;;;;;;;10479398;28;20704;-75
2022/07/27 08:03:31;;;;;;;1.65;0.40;;;;;;;;;;10480729;28;20225;-79
2022/07/27 08:08:33;;;;;;;2.10;0.30;;;;;;;;;;10476760;28;20248;-77
2022/07/27 08:13:34;;;;;;;2.60;0.50;;;;;;;;;;10486050;28;20217;-77
2022/07/27 08:18:35;;;;;;;7.60;0.60;;;;;;;;;;10470894;28;20250;-78
2022/07/27 08:23:37;;;;;;;3.88;0.50;;;;;;;;;;10486600;28;20214;-76
2022/07/27 08:28:38;;;;;;;1.75;0.50;;;;;;;;;;10475992;28;20179;-78
2022/07/27 08:33:39;;;;;;;4.80;0.60;;;;;;;;;;10484514;28;20701;-78
2022/07/27 08:38:40;;;;;;;1.92;0.60;;;;;;;;;;10464494;28;20186;-78
2022/07/27 08:43:44;;;;;;;1.02;0.40;;;;;;;;;;10469380;28;20221;-77
2022/07/27 08:48:45;;;;;;;1.98;0.45;;;;;;;;;;10478910;28;20208;-78
2022/07/27 08:53:46;;;;;;;1.90;0.40;;;;;;;;;;10482250;28;20338;-77
2022/07/27 08:58:48;;;;;;;1.40;0.40;;;;;;;;;;10479357;28;20526;-77
2022/07/27 09:03:49;;;;;;;1.58;0.60;;;;;;;;;;10477836;28;20708;-76
2022/07/27 09:08:59;;;;;;;2.13;0.60;;;;;;;;;;10468383;28;20189;-75
2022/07/27 09:14:02;;;;;;;2.47;0.40;;;;;;;;;;10457052;28;20229;-78
2022/07/27 09:19:04;;;;;;;2.50;0.60;;;;;;;;;;10479259;28;20309;-77
2022/07/27 09:24:16;;;;;;;1.35;0.63;;;;;;;;;;10471978;28;20225;-76
2022/07/27 09:29:33;;;;;;;0.52;0.30;;;;;;;;;;10457352;28;20183;-76
2022/07/27 09:34:35;;;;;;;0.70;0.38;;;;;;;;;;10470195;28;20232;-75
2022/07/27 09:39:37;;;;;;;6.47;0.60;;;;;;;;;;10446655;28;20202;-75
2022/07/27 09:44:39;;;;;;;3.45;0.40;;;;;;;;;;10484441;28;20812;-77
2022/07/27 09:49:41;;;;;;;1.80;0.40;;;;;;;;;;10485729;28;20647;-77
2022/07/27 09:54:44;;;;;;;4.00;0.60;;;;;;;;;;10475456;28;20229;-75
2022/07/27 09:59:45;;;;;;;1.13;0.47;;;;;;;;;;10479999;28;20226;-76
2022/07/27 10:04:46;;;;;;;3.10;0.57;;;;;;;;;;10481519;28;20224;-75
2022/07/27 10:09:47;;;;;;;2.20;0.60;;;;;;;;;;10483077;28;20185;-73
2022/07/27 10:14:48;;;;;;;2.75;0.57;;;;;;;;;;10477872;28;20209;-74
2022/07/27 10:19:50;;;;;;;0.63;0.40;;;;;;;;;;10481329;28;20224;-75
2022/07/27 10:24:58;;;;;;;1.27;0.30;;;;;;;;;;10463548;28;20202;-74
2022/07/27 10:29:59;;;;;;;4.43;0.40;;;;;;;;;;10489189;28;20264;-72
2022/07/27 10:35:01;;;;;;;1.23;0.40;;;;;;;;;;10484122;28;20225;-75
2022/07/27 10:45:24;;;;;;;1.65;0.40;;;;;;;;;;10484978;28;21225;-74
2022/07/27 10:50:28;;;;;;;1.75;0.40;;;;;;;;;;10444696;28;20213;-70
2022/07/27 10:55:30;;;;;;;0.98;0.43;;;;;;;;;;10446741;28;20194;-71
2022/07/27 11:00:57;;;;;;;4.65;0.50;;;;;;;;;;10468104;28;20242;-70
2022/07/27 11:06:02;;;;;;;0.75;0.30;;;;;;;;;;10473279;28;20182;-67
2022/07/27 11:11:04;;;;;;;0.57;0.40;;;;;;;;;;10471484;28;20214;-69
2022/07/27 11:16:09;;;;;;;2.47;0.70;;;;;;;;;;10471055;28;20193;-70
2022/07/27 11:21:21;;;;;;;2.22;0.30;;;;;;;;;;10446058;28;20706;-71
2022/07/27 11:26:23;;;;;;;1.60;0.60;;;;;;;;;;10453158;28;20210;-71
2022/07/27 11:31:24;;;;;;;0.63;0.50;;;;;;;;;;10468898;28;20241;-71
2022/07/27 11:36:39;;;;;;;0.85;0.40;;;;;;;;;;10468557;28;20564;-71
2022/07/27 11:41:41;;;;;;;1.25;0.30;;;;;;;;;;10471037;28;20221;-71
2022/07/27 11:46:43;;;;;;;3.17;0.40;;;;;;;;;;10443847;28;20638;-71
2022/07/27 11:51:46;;;;;;;0.90;0.32;;;;;;;;;;10436847;28;25293;-70
2022/07/27 11:56:48;;;;;;;0.40;0.30;;;;;;;;;;10475428;28;20182;-72
2022/07/27 12:01:51;;;;;;;2.30;0.45;;;;;;;;;;10439203;28;20230;-70
2022/07/27 12:06:57;;;;;;;4.82;0.50;;;;;;;;;;10468806;28;20193;-72
2022/07/27 12:12:07;;;;;;;1.77;0.40;;;;;;;;;;10472986;28;20965;-68
2022/07/27 12:17:42;;;;;;;3.40;0.40;;;;;;;;;;10469342;28;20266;-71
2022/07/27 12:22:44;;;;;;;3.95;0.43;;;;;;;;;;10415453;28;20213;-73
2022/07/27 12:27:55;;;;;;;1.17;0.40;;;;;;;;;;10443049;28;20710;-74
2022/07/27 12:32:56;;;;;;;1.85;0.45;;;;;;;;;;10467595;28;20345;-72
2022/07/27 12:37:58;;;;;;;1.17;0.40;;;;;;;;;;10467384;28;20658;-70
2022/07/27 12:43:05;;;;;;;2.80;0.50;;;;;;;;;;10462556;28;20226;-70
2022/07/27 12:48:06;;;;;;;0.30;0.30;;;;;;;;;;10421947;28;20260;-70
2022/07/27 12:53:08;;;;;;;2.17;0.50;;;;;;;;;;10469940;28;20604;-72
2022/07/27 12:58:10;;;;;;;0.65;0.30;;;;;;;;;;10470978;28;20186;-71
2022/07/27 13:03:11;;;;;;;0.38;0.30;;;;;;;;;;10462685;28;21024;-72
2022/07/27 13:08:12;;;;;;;2.35;0.40;;;;;;;;;;10473475;28;20194;-70
2022/07/27 13:13:13;;;;;;;1.30;0.50;;;;;;;;;;10445338;28;20722;-71
2022/07/27 13:18:14;;;;;;;2.92;0.40;;;;;;;;;;10470133;28;20263;-69
2022/07/27 13:23:15;;;;;;;1.83;0.30;;;;;;;;;;10467221;28;20241;-71
2022/07/27 13:28:17;;;;;;;1.20;0.60;;;;;;;;;;10476795;28;20171;-70
2022/07/27 13:33:18;;;;;;;4.65;0.32;;;;;;;;;;10477673;28;20361;-70
2022/07/27 13:38:19;;;;;;;2.72;0.40;;;;;;;;;;10473631;28;20194;-72
2022/07/27 13:43:20;;;;;;;3.03;0.30;;;;;;;;;;10468041;28;20224;-68
2022/07/27 13:48:21;;;;;;;0.77;0.40;;;;;;;;;;10464989;28;21845;-70
2022/07/27 13:53:22;;;;;;;1.52;0.40;;;;;;;;;;10440189;28;20214;-71
2022/07/27 13:58:23;;;;;;;0.55;0.30;;;;;;;;;;10451392;28;20220;-70
2022/07/27 14:03:24;;;;;;;3.53;0.43;;;;;;;;;;10455701;28;20237;-72
2022/07/27 14:08:25;;;;;;;0.70;0.35;;;;;;;;;;10472194;28;21080;-70
2022/07/27 14:13:28;;;;;;;3.50;0.30;;;;;;;;;;10442479;28;20255;-70
2022/07/27 14:18:30;;;;;;;1.33;0.30;;;;;;;;;;10443194;28;20210;-74
2022/07/27 14:23:33;;;;;;;2.20;0.40;;;;;;;;;;10459851;28;20249;-75
2022/07/27 14:28:34;;;;;;;3.50;0.30;;;;;;;;;;10439376;28;20190;-73
2022/07/27 14:33:35;;;;;;;3.72;0.35;;;;;;;;;;10467534;28;20744;-74
2022/07/27 14:38:36;;;;;;;2.67;0.40;;;;;;;;;;10469236;28;20186;-75
2022/07/27 14:43:37;;;;;;;2.97;0.22;;;;;;;;;;10471994;28;20221;-74
2022/07/27 14:48:39;;;;;;;1.85;0.40;;;;;;;;;;10479018;28;20206;-76
2022/07/27 14:53:40;;;;;;;1.67;0.50;;;;;;;;;;10469759;28;20214;-74
2022/07/27 14:58:41;;;;;;;3.03;0.40;;;;;;;;;;10445642;28;20182;-71
2022/07/27 15:03:42;;;;;;;2.05;0.40;;;;;;;;;;10444352;28;20218;-72
2022/07/27 15:08:43;;;;;;;3.05;0.50;;;;;;;;;;10471679;28;20182;-74
2022/07/27 15:13:44;;;;;;;0.70;0.40;;;;;;;;;;10471725;28;20213;-74
2022/07/27 15:18:45;;;;;;;1.20;0.38;;;;;;;;;;10463883;28;20289;-75
2022/07/27 15:23:46;;;;;;;1.27;0.40;;;;;;;;;;10467901;28;20371;-71
2022/07/27 15:28:47;;;;;;;0.52;0.40;;;;;;;;;;10476109;28;20273;-70
2022/07/27 15:33:48;;;;;;;0.30;0.30;;;;;;;;;;10466295;28;20311;-69
2022/07/27 15:38:49;;;;;;;0.68;0.40;;;;;;;;;;10474398;28;20197;-71
2022/07/27 15:43:51;;;;;;;0.60;0.25;;;;;;;;;;10475041;28;20655;-71
2022/07/27 15:48:52;;;;;;;1.63;0.30;;;;;;;;;;10471345;28;20202;-72
2022/07/27 15:53:54;;;;;;;1.15;0.30;;;;;;;;;;10478434;28;20372;-70
2022/07/27 15:58:55;;;;;;;1.73;0.45;;;;;;;;;;10465699;28;20182;-74
2022/07/27 16:03:56;;;;;;;1.95;0.32;;;;;;;;;;10485652;28;20213;-71
2022/07/27 16:08:58;;;;;;;7.78;0.68;;;;;;;;;;10467725;28;20231;-72
2022/07/27 16:13:59;;;;;;;5.28;0.40;;;;;;;;;;10476526;28;20239;-73
2022/07/27 16:19:00;;;;;;;1.20;0.60;;;;;;;;;;10446253;28;20202;-73
2022/07/27 16:24:01;;;;;;;2.20;0.55;;;;;;;;;;10474925;28;20222;-73
2022/07/27 16:29:03;;;;;;;0.65;0.50;;;;;;;;;;10484241;28;20216;-72
2022/07/27 16:34:04;;;;;;;0.57;0.30;;;;;;;;;;10483280;28;20717;-73
2022/07/27 16:39:05;;;;;;;3.20;0.50;;;;;;;;;;10481014;28;20266;-73
2022/07/27 16:44:06;;;;;;;3.42;0.50;;;;;;;;;;10480877;28;20854;-73
2022/07/27 16:49:08;;;;;;;0.85;0.30;;;;;;;;;;10478308;28;20205;-72
2022/07/27 16:54:09;;;;;;;2.53;0.57;;;;;;;;;;10482663;28;20313;-72
2022/07/27 16:59:10;;;;;;;1.23;0.40;;;;;;;;;;10473358;28;20181;-72
2022/07/27 17:04:11;;;;;;;0.85;0.50;;;;;;;;;;10486402;28;20226;-71
2022/07/27 17:09:12;;;;;;;1.45;0.40;;;;;;;;;;10465684;28;20671;-71
2022/07/27 17:14:15;;;;;;;4.32;0.50;;;;;;;;;;10457091;28;20212;-70
2022/07/27 17:19:16;;;;;;;3.80;0.65;;;;;;;;;;10478713;28;20197;-70
2022/07/27 17:24:17;;;;;;;0.57;0.40;;;;;;;;;;10463488;28;20228;-68
2022/07/27 17:29:18;;;;;;;3.10;0.68;;;;;;;;;;10496332;28;20231;-71
2022/07/27 17:34:20;;;;;;;1.77;0.40;;;;;;;;;;10495564;28;20239;-71
2022/07/27 17:39:21;;;;;;;2.78;0.50;;;;;;;;;;10490503;28;20186;-70
2022/07/27 17:44:22;;;;;;;2.92;0.40;;;;;;;;;;10489858;28;20254;-71
2022/07/27 17:49:23;;;;;;;2.78;0.50;;;;;;;;;;10488447;28;20227;-71
2022/07/27 17:54:24;;;;;;;1.02;0.40;;;;;;;;;;10483299;28;20344;-70
2022/07/27 17:59:25;;;;;;;1.55;0.40;;;;;;;;;;10457372;28;20705;-72
2022/07/27 18:04:27;;;;;;;1.38;0.50;;;;;;;;;;10458589;28;20229;-69
2022/07/27 18:09:28;;;;;;;4.07;0.70;;;;;;;;;;10484424;28;20191;-74
2022/07/27 18:14:29;;;;;;;2.17;0.47;;;;;;;;;;10458630;28;20263;-72
2022/07/27 18:19:30;;;;;;;0.30;0.30;;;;;;;;;;10457627;28;20242;-70
2022/07/27 18:24:34;;;;;;;1.52;0.40;;;;;;;;;;10489947;28;20248;-71
2022/07/27 18:29:35;;;;;;;2.85;0.50;;;;;;;;;;10478557;28;20193;-72
2022/07/27 18:34:37;;;;;;;4.03;0.50;;;;;;;;;;10436233;28;20234;-71
2022/07/27 18:39:38;;;;;;;0.45;0.40;;;;;;;;;;10450200;28;20221;-74
2022/07/27 18:44:39;;;;;;;1.20;0.50;;;;;;;;;;10449648;28;20222;-72
2022/07/27 18:49:40;;;;;;;4.80;0.55;;;;;;;;;;10429336;28;20280;-76
2022/07/27 18:54:41;;;;;;;2.13;0.40;;;;;;;;;;10441129;28;20217;-74
2022/07/27 18:59:42;;;;;;;1.13;0.40;;;;;;;;;;10449483;28;20269;-70
2022/07/27 19:04:44;;;;;;;1.08;0.60;;;;;;;;;;10431604;28;20240;-69
2022/07/27 19:09:45;;;;;;;2.47;0.60;;;;;;;;;;10444146;28;20401;-74
2022/07/27 19:14:46;;;;;;;1.25;0.43;;;;;;;;;;10445275;28;20245;-75
2022/07/27 19:19:47;;;;;;;2.30;0.57;;;;;;;;;;10445691;28;20191;-73
2022/07/27 19:24:48;;;;;;;1.35;0.60;;;;;;;;;;10436740;28;20265;-73
2022/07/27 19:29:49;;;;;;;3.70;0.57;;;;;;;;;;10437631;28;20550;-74
2022/07/27 19:34:50;;;;;;;2.22;0.45;;;;;;;;;;10480612;28;20237;-73
2022/07/27 19:39:51;;;;;;;2.90;0.57;;;;;;;;;;10492463;28;20557;-73
2022/07/27 19:44:52;;;;;;;0.60;0.60;;;;;;;;;;10480588;28;20209;-75
2022/07/27 19:49:54;;;;;;;4.13;0.55;;;;;;;;;;10457812;28;20241;-77
2022/07/27 19:54:55;;;;;;;4.97;0.63;;;;;;;;;;10457497;28;20239;-74
2022/07/27 19:59:57;;;;;;;3.03;0.70;;;;;;;;;;10481416;28;20643;-76
2022/07/27 20:04:58;;;;;;;1.05;0.60;;;;;;;;;;10474352;28;20560;-77
2022/07/27 20:09:59;;;;;;;1.60;0.50;;;;;;;;;;10478797;28;20205;-77
2022/07/27 20:15:00;;;;;;;2.58;0.60;;;;;;;;;;10457308;28;20238;-77
2022/07/27 20:20:01;;;;;;;5.50;0.65;;;;;;;;;;10469203;28;20195;-77
2022/07/27 20:25:03;;;;;;;3.40;0.60;;;;;;;;;;10486505;28;20251;-77
2022/07/27 20:30:04;;;;;;;3.33;0.60;;;;;;;;;;10464924;28;20181;-77
2022/07/27 20:35:05;;;;;;;3.85;0.60;;;;;;;;;;10460787;28;20228;-77
2022/07/27 20:40:10;;;;;;;6.43;0.80;;;;;;;;;;10467923;28;20221;-76
2022/07/27 20:45:13;;;;;;;2.25;0.70;;;;;;;;;;10486950;28;20292;-77
2022/07/27 20:50:14;;;;;;;4.80;0.63;;;;;;;;;;10470949;28;20277;-77
2022/07/27 20:55:15;;;;;;;2.45;0.68;;;;;;;;;;10478765;28;20183;-77
2022/07/27 21:00:18;;;;;;;0.52;0.50;;;;;;;;;;10474588;28;20193;-76
2022/07/27 21:05:20;;;;;;;2.58;0.70;;;;;;;;;;10473611;28;20878;-78
2022/07/27 21:10:22;;;;;;;4.82;0.70;;;;;;;;;;10476976;28;20189;-77
2022/07/27 21:15:23;;;;;;;1.25;0.70;;;;;;;;;;10454980;28;20670;-78
2022/07/27 21:20:25;;;;;;;2.65;0.77;;;;;;;;;;10475034;28;20235;-77
2022/07/27 21:25:26;;;;;;;8.65;1.40;;;;;;;;;;10485587;28;20186;-78
2022/07/27 21:30:27;;;;;;;3.78;0.73;;;;;;;;;;10479761;28;20649;-77
2022/07/27 21:35:28;;;;;;;7.38;0.50;;;;;;;;;;10484432;28;20228;-78
2022/07/27 21:40:33;;;;;;;4.07;0.70;;;;;;;;;;10479641;28;20705;-77
2022/07/27 21:45:34;;;;;;;10.68;0.98;;;;;;;;;;10487670;28;20206;-77
2022/07/27 21:50:35;;;;;;;5.93;0.90;;;;;;;;;;10488284;28;20223;-77
2022/07/27 21:55:37;;;;;;;1.60;0.55;;;;;;;;;;10482481;28;20186;-77
2022/07/27 22:00:38;;;;;;;7.13;0.70;;;;;;;;;;10483512;28;20221;-78
2022/07/27 22:05:39;;;;;;;5.88;0.93;;;;;;;;;;10481212;28;20200;-78
2022/07/27 22:10:41;;;;;;;8.05;0.80;;;;;;;;;;10485667;28;20248;-78
2022/07/27 22:15:42;;;;;;;1.58;0.65;;;;;;;;;;10488968;28;20182;-78
2022/07/27 22:20:43;;;;;;;3.03;0.50;;;;;;;;;;10485324;28;20233;-79
2022/07/27 22:25:44;;;;;;;3.65;0.63;;;;;;;;;;10478342;28;20219;-78
2022/07/27 22:30:45;;;;;;;1.95;0.60;;;;;;;;;;10462673;28;20203;-79
2022/07/27 22:35:46;;;;;;;2.28;0.90;;;;;;;;;;10471242;28;20190;-78
2022/07/27 22:40:47;;;;;;;2.83;0.70;;;;;;;;;;10478482;28;20217;-79
2022/07/27 22:45:48;;;;;;;3.75;0.95;;;;;;;;;;10485988;28;20953;-78
2022/07/27 22:50:49;;;;;;;1.35;0.60;;;;;;;;;;10479776;28;20210;-78
2022/07/27 22:55:50;;;;;;;2.80;0.70;;;;;;;;;;10482313;28;20173;-78
2022/07/27 23:00:51;;;;;;;1.67;0.70;;;;;;;;;;10480006;28;20245;-78
2022/07/27 23:05:52;;;;;;;3.97;0.60;;;;;;;;;;10471912;28;20186;-79
2022/07/27 23:10:53;;;;;;;2.80;0.50;;;;;;;;;;10486102;28;21185;-79
2022/07/27 23:15:54;;;;;;;4.57;0.70;;;;;;;;;;10480702;28;20175;-78
2022/07/27 23:20:55;;;;;;;15.82;0.80;;;;;;;;;;10481752;28;20313;-78
2022/07/27 23:25:57;;;;;;;3.20;0.70;;;;;;;;;;10475785;28;20199;-79
2022/07/27 23:30:58;;;;;;;6.00;0.80;;;;;;;;;;10415589;28;1149071;-79
2022/07/27 23:35:59;;;;;;;3.97;0.75;;;;;;;;;;10456088;28;20193;-78
2022/07/27 23:41:00;;;;;;;3.05;0.60;;;;;;;;;;10483838;28;20226;-79
2022/07/27 23:46:01;;;;;;;2.38;0.88;;;;;;;;;;10483890;28;20181;-79
2022/07/27 23:51:02;;;;;;;4.20;0.70;;;;;;;;;;10456869;28;20229;-80
2022/07/27 23:56:03;;;;;;;1.27;0.50;;;;;;;;;;10478023;28;20634;-79
